Gadsden, AL

7:22 PM CST on March 03, 2015 (GMT -0600)
Noccalula Falls | Change Station
CLOSE
Current Station
Personal Weather Station
Location: Gadsden, AL
Elevation: 748 ft
Nearby Weather Stations

Elev 748 ft 34.06 °N, 85.99 °W | Updated 13 minutes ago

Fog
Fog
54.4 °F
Feels Like 54.4 °F
N
0.0
Wind Variable Wind from WSW
Gusts 0.0 mph

Today
High -- | Low -- °F
--% Chance of Precip.
Yesterday
High -- | Low -- °F
Precip. -- in
6:10 AM 5:41 PM
Waxing Gibbous, 97% visible
Pressure 30.05 in
Visibility 0.5 miles
Clouds Overcast 300 ft
Dew Point 54 °F
Humidity 97%
Rainfall 0.20 in
Snow Depth Not available.
UV 0 out of 12
Pollen 5.30 out of 12
Air Quality Not available.
Flu Activity Not available.
METAR KGAD 040115Z 00000KT 1/2SM OVC003 12/10 A3005 RMK AO1

More Conditions Fewer Conditions

Pressure 30.05 in
Visibility 0.5 miles
Clouds Overcast 300 ft
Dew Point 54 °F
Humidity 97%
Rainfall 0.20 in
Snow Depth Not available.
UV 0 out of 12
Pollen 5.30 out of 12
Air Quality Not available.
Flu Activity Not available.
METAR KGAD 040115Z 00000KT 1/2SM OVC003 12/10 A3005 RMK AO1

More Conditions Fewer Conditions

10-Day Weather Forecast

Almanac

Astronomy

Mar. 03, 2015 Rise Set
Actual Time
Civil Twilight
Nautical Twilight
Astronomical Twilight
Moon
Length of Visible Light
Length of Day
Tomorrow will be .
, % of the Moon is Illuminated

Today's Extremes

State Highs State Lows

Community

WunderPhotos

Upload Photos

1,802,342 photos uploaded!

WunderBlogs® & News

Nearby

Air Quality

  Air Quality AQ Index Pollutant
Not available.

Snow Depth

Station Depth Elevation

Earthquake Activity

City Distance Mag. Time & Date
Minimum magnitude displayed is 2.5.

Coastal Water Temperatures

Place Temperature

Nearby Weather Stations